Emporia, Kansas
Current Conditions -  °F | °C
As of 6:53 AM on Saturday 25 Oct 2014 (Local Time) from KEMP Reporting Station
Haze Haze  
Wind Chill: 55°   Ceiling: Unl
Heat Index: 55°   Visibility: 4mi
Dew Point: 55°   Wind: 6mph
Humidity: 100%   Direction: 190°S
Pressure: 30.04"   Gusts: NA
Location:  38.41°N, 96.18°W
Report Text: KEMP 251153Z AUTO 19005KT 4SM BR CLR 13/13 A3004 RMK AO2 SLP170 T01280128 10183 20117 53003
Loading
Personal Weather Stations






























Interactive Weather Map
Tropical Storm Tracking
New forecast layout! Learn more

10-Day Weather Forecast

Advertisements
Track Severe Weather on mobile